createdAt,value
2019-02-25T05:03:59.302Z,103642.44
2019-02-25T05:07:27.263Z,103644.8
2019-02-25T05:10:55.206Z,103643.53
2019-02-25T05:14:23.149Z,103653.43
2019-02-25T05:17:51.254Z,103649
2019-02-25T05:21:20.306Z,103655.06
2019-02-25T05:24:48.244Z,103660.67
2019-02-25T05:28:16.266Z,103657.25
2019-02-25T05:31:45.212Z,103658.91
2019-02-25T05:35:13.192Z,103655.3
2019-02-25T05:38:41.066Z,103658.75
2019-02-25T05:42:09.141Z,103664.4
2019-02-25T05:45:37.159Z,103664.47
2019-02-25T05:49:06.078Z,103667.37
2019-02-25T05:52:34.039Z,103667.01
2019-02-25T05:56:02.076Z,103671.03
2019-02-25T05:59:30.067Z,103666.75
2019-02-25T06:02:59.064Z,103665.39
2019-02-25T06:06:27.069Z,103663.78
2019-02-25T06:09:55.113Z,103664.35
2019-02-25T06:13:23.037Z,103671.48
2019-02-25T06:16:51.004Z,103667.2
2019-02-25T06:20:19.008Z,103658.39
2019-02-25T06:23:46.952Z,103663.78
2019-02-25T06:27:14.929Z,103668.15
2019-02-25T06:30:43.511Z,103668
2019-02-25T06:34:12.418Z,103672.9
2019-02-25T06:37:40.374Z,103671.85
2019-02-25T06:41:08.289Z,103670.58
2019-02-25T06:44:36.227Z,103669.54
2019-02-25T06:48:04.243Z,103667.21
2019-02-25T06:51:33.151Z,103659.04
2019-02-25T06:55:01.091Z,103660.95
2019-02-25T06:58:30.046Z,103651.32
2019-02-25T07:01:58.074Z,103650.49
2019-02-25T07:05:25.972Z,103650.29
2019-02-25T07:08:53.938Z,103651.53
2019-02-25T07:12:21.866Z,103655.44
2019-02-25T07:15:50.123Z,103653.33
2019-02-25T07:19:18.098Z,103655.5
2019-02-25T07:22:46.990Z,103662.41
2019-02-25T07:26:16.005Z,103659.48
2019-02-25T07:29:43.894Z,103660.79
2019-02-25T07:33:11.872Z,103677.1
2019-02-25T07:36:39.900Z,103672.5
2019-02-25T07:40:07.805Z,103679.77
2019-02-25T07:43:35.757Z,103684.14
2019-02-25T07:47:03.692Z,103678.48
2019-02-25T07:50:31.564Z,103681.25
2019-02-25T07:53:59.475Z,103702.96
2019-02-25T07:57:27.397Z,103712.17
2019-02-25T08:00:55.417Z,103706.8
2019-02-25T08:04:23.369Z,103712.13
2019-02-25T08:07:52.382Z,103716.35
2019-02-25T08:11:21.770Z,103719.68
2019-02-25T08:14:49.186Z,103725.56
2019-02-25T08:18:17.145Z,103720.98
2019-02-25T08:21:45.075Z,103717.89
2019-02-25T08:25:13.002Z,103708.75
2019-02-25T08:28:40.987Z,103703.32
2019-02-25T08:32:09.895Z,103706.44
2019-02-25T08:35:37.871Z,103712.46
2019-02-25T08:39:05.790Z,103697.71
2019-02-25T08:42:33.690Z,103696.26
2019-02-25T08:46:01.712Z,103686.2
2019-02-25T08:49:29.758Z,103683.43
2019-02-25T08:52:57.820Z,103684.23
2019-02-25T08:56:25.864Z,103682.96
2019-02-25T08:59:53.802Z,103672.2
2019-02-25T09:03:22.816Z,103673.91
2019-02-25T09:06:50.774Z,103672.06
2019-02-25T09:10:18.750Z,103666.09
2019-02-25T09:13:47.660Z,103671.62
2019-02-25T09:17:16.935Z,103658.98
2019-02-25T09:20:44.882Z,103658.97
2019-02-25T09:24:12.844Z,103658.46
2019-02-25T09:27:40.937Z,103649.43
2019-02-25T09:31:09.002Z,103660.47
2019-02-25T09:34:36.927Z,103650.67
2019-02-25T09:38:04.840Z,103646.48
2019-02-25T09:41:32.769Z,103654.48
2019-02-25T09:45:00.777Z,103664.43
2019-02-25T09:48:28.810Z,103664.68
2019-02-25T09:51:56.808Z,103658.56
2019-02-25T09:55:25.919Z,103651
2019-02-25T09:58:53.835Z,103653.26
2019-02-25T10:02:21.798Z,103643.29
2019-02-25T10:05:50.826Z,103637.6
2019-02-25T10:09:18.795Z,103642.73
2019-02-25T10:12:49.692Z,103648.12
2019-02-25T10:16:17.614Z,103652.68
2019-02-25T10:19:45.548Z,103650.27
2019-02-25T10:23:13.529Z,103646.84
2019-02-25T10:26:41.453Z,103653.26
2019-02-25T10:30:09.565Z,103650
2019-02-25T10:33:37.531Z,103651.07
2019-02-25T10:37:05.503Z,103634.14
2019-02-25T10:40:36.392Z,103618.81
2019-02-25T10:44:06.825Z,103619.44
2019-02-25T10:47:36.222Z,103612.12
2019-02-25T10:51:11.462Z,103611.28
2019-02-25T10:54:40.918Z,103602.54
2019-02-25T10:58:08.913Z,103599.65
2019-02-25T11:01:39.237Z,103599.03
2019-02-25T11:05:10.731Z,103596.1
2019-02-25T11:08:41.476Z,103601.99
2019-02-25T11:12:11.317Z,103586.25
2019-02-25T11:15:42.214Z,103573.11
2019-02-25T11:19:12.225Z,103579.57
2019-02-25T11:22:43.630Z,103569.28
2019-02-25T11:26:13.333Z,103566.06
2019-02-25T11:29:44.046Z,103578.46
2019-02-25T11:33:14.197Z,103587.12
2019-02-25T11:36:42.251Z,103583.03
2019-02-25T11:40:11.244Z,103582.21
2019-02-25T11:43:39.203Z,103576.28
2019-02-25T11:47:10.190Z,103571.26
2019-02-25T11:50:39.134Z,103582.29
2019-02-25T11:54:08.036Z,103585.95
2019-02-25T11:57:37.114Z,103584.34
2019-02-25T12:01:05.206Z,103573.54
2019-02-25T12:04:33.210Z,103574.85
2019-02-25T12:08:01.195Z,103572.64
2019-02-25T12:11:30.148Z,103569.81
2019-02-25T12:14:58.111Z,103577.87
2019-02-25T12:18:26.351Z,103582.07
2019-02-25T12:21:54.441Z,103575.46
2019-02-25T12:25:22.712Z,103569.46
2019-02-25T12:28:50.701Z,103570.54
2019-02-25T12:32:18.743Z,103562.07
2019-02-25T12:35:46.752Z,103571.59
2019-02-25T12:39:15.731Z,103565.28
2019-02-25T12:42:45.013Z,103550.73
2019-02-25T12:46:13.025Z,103539.93
2019-02-25T12:49:41.122Z,103541.15
2019-02-25T12:53:09.110Z,103531.46
2019-02-25T12:56:38.144Z,103528.82
2019-02-25T13:00:06.180Z,103507.85
2019-02-25T13:03:34.144Z,103498.23
2019-02-25T13:07:02.268Z,103501.87
2019-02-25T13:10:30.227Z,103522.45
2019-02-25T13:13:58.298Z,103500.28
2019-02-25T13:17:26.355Z,103513.87
2019-02-25T13:20:54.303Z,103500.17
2019-02-25T13:24:22.356Z,103497.06
2019-02-25T13:27:54.056Z,103492.7
2019-02-25T13:31:26.299Z,103494.67
2019-02-25T13:34:54.421Z,103497.64
2019-02-25T13:38:22.556Z,103502.53
2019-02-25T13:41:50.555Z,103497.31
2019-02-25T13:45:18.545Z,103506.53
2019-02-25T13:48:46.516Z,103503.68
2019-02-25T13:52:14.433Z,103496.09
2019-02-25T13:55:42.426Z,103485.18
2019-02-25T13:59:10.381Z,103508.06
2019-02-25T14:02:38.298Z,103492.73
2019-02-25T14:06:06.337Z,103490.45
2019-02-25T14:09:34.301Z,103476.84
2019-02-25T14:13:02.273Z,103452.8
2019-02-25T14:16:31.300Z,103464.17
2019-02-25T14:19:59.257Z,103456.98
2019-02-25T14:23:27.278Z,103451.63
2019-02-25T14:26:56.330Z,103445.87
2019-02-25T14:30:24.317Z,103444.06
2019-02-25T14:33:54.318Z,103444.44
2019-02-25T14:37:22.280Z,103444.85
2019-02-25T14:40:53.990Z,103444.69
2019-02-25T14:44:22.340Z,103436.22
2019-02-25T14:47:59.470Z,103443.72
2019-02-25T14:51:29.170Z,103450.23
2019-02-25T14:54:58.265Z,103462.14
2019-02-25T14:58:35.348Z,103428.15
2019-02-25T15:02:08.679Z,103427.82
2019-02-25T15:05:38.109Z,103427.03
2019-02-25T15:09:10.350Z,103436.18
2019-02-25T15:12:40.990Z,103425.21
2019-02-25T15:16:09.049Z,103439.14
2019-02-25T15:19:40.770Z,103449.28
2019-02-25T15:23:12.432Z,103449.73
2019-02-25T15:26:43.825Z,103444.79
2019-02-25T15:30:11.789Z,103447.61
2019-02-25T15:33:42.764Z,103428.81
2019-02-25T15:37:13.956Z,103428.71
2019-02-25T15:40:41.659Z,103432.4
2019-02-25T15:44:13.016Z,103434.1
2019-02-25T15:47:42.436Z,103433.39
2019-02-25T15:51:12.474Z,103441.87
2019-02-25T15:54:43.776Z,103451.27
2019-02-25T15:58:11.498Z,103439.23
2019-02-25T16:01:39.517Z,103432.84
2019-02-25T16:05:09.919Z,103424.37
2019-02-25T16:08:37.486Z,103425.18
2019-02-25T16:12:07.788Z,103406.56
2019-02-25T16:15:36.339Z,103410.78
2019-02-25T16:19:06.309Z,103407.54
2019-02-25T16:22:38.939Z,103397.14
2019-02-25T16:26:09.001Z,103392.89
2019-02-25T16:29:40.625Z,103399.5
2019-02-25T16:33:12.689Z,103398.45
2019-02-25T16:36:40.626Z,103405.01
2019-02-25T16:40:12.550Z,103399.06
2019-02-25T16:43:40.449Z,103399.12
2019-02-25T16:47:11.767Z,103395.75
2019-02-25T16:50:46.375Z,103388.46
2019-02-25T16:54:18.807Z,103386.39
2019-02-25T16:57:49.502Z,103386.21
2019-02-25T17:01:17.445Z,103392.67
2019-02-25T17:04:45.404Z,103397.99
2019-02-25T17:08:14.440Z,103392.29
2019-02-25T17:11:46.033Z,103383.87
2019-02-25T17:15:13.476Z,103395.95
2019-02-25T17:18:41.487Z,103407.84
2019-02-25T17:22:11.384Z,103397.14
2019-02-25T17:25:43.505Z,103395
2019-02-25T17:29:10.423Z,103387.06
2019-02-25T17:32:41.851Z,103388.33
2019-02-25T17:36:15.155Z,103385.35
2019-02-25T17:39:43.485Z,103391.5
2019-02-25T17:43:15.299Z,103393.98
2019-02-25T17:46:45.287Z,103395.71
2019-02-25T17:50:14.375Z,103391.17
2019-02-25T17:53:43.902Z,103387.7
2019-02-25T17:57:16.396Z,103396.38
2019-02-25T18:00:44.444Z,103398.79
2019-02-25T18:04:12.423Z,103385.67
2019-02-25T18:07:44.143Z,103390.76
2019-02-25T18:11:15.720Z,103387.47
2019-02-25T18:14:48.321Z,103384.03
2019-02-25T18:18:20.276Z,103383.81
2019-02-25T18:21:49.475Z,103386.37
2019-02-25T18:25:20.419Z,103402.73
2019-02-25T18:28:50.390Z,103389.96
2019-02-25T18:32:19.676Z,103387.76
2019-02-25T18:35:47.706Z,103400.29
2019-02-25T18:39:15.867Z,103389.78
2019-02-25T18:42:45.904Z,103377.17
2019-02-25T18:46:15.011Z,103387.62
2019-02-25T18:49:46.011Z,103380.46
2019-02-25T18:53:20.507Z,103389.28
2019-02-25T18:56:51.494Z,103378.57
2019-02-25T19:00:23.819Z,103375.96
2019-02-25T19:03:56.908Z,103379.62
2019-02-25T19:07:28.931Z,103376.51
2019-02-25T19:10:59.328Z,103376.9
2019-02-25T19:14:30.643Z,103372.18
2019-02-25T19:17:59.212Z,103371.17
2019-02-25T19:21:29.773Z,103376.85
2019-02-25T19:24:59.083Z,103375.71
2019-02-25T19:28:30.958Z,103370.01
2019-02-25T19:32:01.295Z,103364.98
2019-02-25T19:35:32.540Z,103352.98
2019-02-25T19:39:09.318Z,103347.96
2019-02-25T19:42:38.672Z,103340.2
2019-02-25T19:46:11.571Z,103341.93
2019-02-25T19:49:43.407Z,103343.18
2019-02-25T19:53:15.216Z,103346.82
2019-02-25T19:56:48.281Z,103342.79
2019-02-25T20:00:22.245Z,103332.42
2019-02-25T20:03:54.345Z,103326.1
2019-02-25T20:07:28.347Z,103320.1
2019-02-25T20:10:59.263Z,103316
2019-02-25T20:14:31.023Z,103308.11
2019-02-25T20:17:57.722Z,103318.96
2019-02-25T20:21:29.340Z,103316.03
2019-02-25T20:24:58.643Z,103317.1
2019-02-25T20:28:27.721Z,103322.51
2019-02-25T20:31:58.666Z,103324.25
2019-02-25T20:35:29.443Z,103324.56
2019-02-25T20:38:58.028Z,103327.38
2019-02-25T20:42:28.534Z,103340.22
2019-02-25T20:46:01.436Z,103332.45
2019-02-25T20:49:33.034Z,103339.49
2019-02-25T20:53:05.898Z,103319.35
2019-02-25T20:56:35.058Z,103326.85
2019-02-25T21:00:06.111Z,103334.75
2019-02-25T21:03:41.481Z,103345.73
2019-02-25T21:07:13.277Z,103358.49
2019-02-25T21:10:41.245Z,103355.75
2019-02-25T21:14:10.362Z,103349.08
2019-02-25T21:17:40.497Z,103342.99
2019-02-25T21:21:12.162Z,103349.54
2019-02-25T21:24:41.541Z,103331.06
2019-02-25T21:28:11.470Z,103323.52
2019-02-25T21:31:43.081Z,103319.34
2019-02-25T21:35:13.478Z,103310.95
2019-02-25T21:38:41.429Z,103306.58
2019-02-25T21:42:15.299Z,103296.42
2019-02-25T21:45:50.397Z,103285.46
2019-02-25T21:49:26.772Z,103279.71
2019-02-25T21:52:56.541Z,103259.12
2019-02-25T21:56:26.956Z,103250.14
2019-02-25T21:59:58.229Z,103238.13
2019-02-25T22:03:28.637Z,103238.31
2019-02-25T22:07:00.693Z,103256.62
2019-02-25T22:10:28.654Z,103257.13
2019-02-25T22:13:59.545Z,103246.53
2019-02-25T22:17:27.510Z,103261.99
2019-02-25T22:20:55.540Z,103268.28
2019-02-25T22:24:27.517Z,103267.16
2019-02-25T22:28:01.514Z,103258.2
2019-02-25T22:31:36.737Z,103257.09
2019-02-25T22:35:10.528Z,103261.48
2019-02-25T22:38:40.583Z,103245.94
2019-02-25T22:42:11.586Z,103238.37
2019-02-25T22:45:42.506Z,103239.23
2019-02-25T22:49:11.445Z,103235.06
2019-02-25T22:52:39.348Z,103229.62
2019-02-25T22:56:11.846Z,103228.17
2019-02-25T22:59:42.274Z,103232.83
